Time;durP1;ratioP1;P1;durP2;ratioP2;P2;SDS_P1;SDS_P2;PMS_P1;PMS_P2;Temp;Humidity;BMP_temperature;BMP_pressure;BME280_temperature;BME280_humidity;BME280_pressure;Samples;Min_cycle;Max_cycle;Signal;HPM_P1;HPM_P2
2021/01/14 00:00:16;;;;;;;20.77;11.32;;;0.70;99.90;;;;;;4962066;28;20125;-70
2021/01/14 00:02:44;;;;;;;13.85;10.57;;;0.70;99.90;;;;;;4962400;28;20361;-68
2021/01/14 00:05:12;;;;;;;15.68;11.10;;;0.70;99.90;;;;;;4963594;28;20109;-65
2021/01/14 00:07:39;;;;;;;15.35;10.27;;;0.70;99.90;;;;;;4960577;28;20178;-68
2021/01/14 00:10:08;;;;;;;13.95;9.23;;;0.70;99.90;;;;;;4963547;28;20153;-69
2021/01/14 00:12:35;;;;;;;14.57;9.65;;;0.70;99.90;;;;;;4962733;28;20604;-66
2021/01/14 00:15:04;;;;;;;17.70;11.32;;;0.70;99.90;;;;;;4961985;28;20054;-69
2021/01/14 00:17:31;;;;;;;16.23;10.05;;;0.70;99.90;;;;;;4961678;28;20172;-69
2021/01/14 00:19:57;;;;;;;17.83;13.13;;;0.80;99.90;;;;;;4963167;28;20039;-65
2021/01/14 00:22:24;;;;;;;13.13;9.25;;;0.80;99.90;;;;;;4962603;28;20055;-67
2021/01/14 00:24:50;;;;;;;15.85;9.93;;;0.70;99.90;;;;;;4963091;28;20306;-69
2021/01/14 00:27:16;;;;;;;18.30;9.77;;;0.70;99.90;;;;;;4961474;28;20141;-65
2021/01/14 00:29:43;;;;;;;14.32;9.48;;;0.80;99.90;;;;;;4963213;28;20050;-68
2021/01/14 00:32:09;;;;;;;11.80;8.52;;;0.70;99.90;;;;;;4963275;28;20054;-74
2021/01/14 00:34:37;;;;;;;13.27;9.38;;;0.80;99.90;;;;;;4963278;28;21245;-67
2021/01/14 00:40:15;;;;;;;13.23;9.18;;;0.80;99.90;;;;;;4976443;28;20080;-69
2021/01/14 00:42:42;;;;;;;12.80;9.55;;;0.80;99.90;;;;;;4975915;28;20125;-72
2021/01/14 00:45:09;;;;;;;11.30;8.40;;;0.80;99.90;;;;;;4957296;28;20162;-65
2021/01/14 00:47:36;;;;;;;11.95;7.90;;;0.80;99.90;;;;;;4961373;28;20089;-69
2021/01/14 00:50:04;;;;;;;12.02;7.78;;;0.80;99.90;;;;;;4960638;28;20045;-71
2021/01/14 00:52:31;;;;;;;10.48;7.18;;;0.80;99.90;;;;;;4963005;28;20675;-69
2021/01/14 00:54:57;;;;;;;10.00;7.43;;;0.80;99.90;;;;;;4962518;28;20054;-65
2021/01/14 00:57:24;;;;;;;11.80;7.00;;;0.80;99.90;;;;;;4961018;28;20220;-70
2021/01/14 00:59:50;;;;;;;10.68;6.35;;;0.80;99.90;;;;;;4963041;28;20768;-66
2021/01/14 01:02:16;;;;;;;7.03;5.90;;;0.80;99.90;;;;;;4962417;28;20051;-67
2021/01/14 01:04:43;;;;;;;8.13;6.82;;;0.80;99.90;;;;;;4958892;28;20038;-67
2021/01/14 01:07:11;;;;;;;9.43;6.63;;;0.80;99.90;;;;;;4961672;28;20070;-68
2021/01/14 01:09:38;;;;;;;9.18;6.05;;;0.80;99.90;;;;;;4961785;28;20046;-64
2021/01/14 01:12:05;;;;;;;8.40;6.95;;;0.80;99.90;;;;;;4953086;28;20047;-67
2021/01/14 01:14:32;;;;;;;8.18;6.65;;;0.80;99.90;;;;;;4963061;28;20170;-69
2021/01/14 01:16:58;;;;;;;7.32;6.43;;;0.80;99.90;;;;;;4962758;28;20066;-69
2021/01/14 01:19:24;;;;;;;7.65;6.43;;;0.80;99.90;;;;;;4963001;28;20561;-69
2021/01/14 01:21:51;;;;;;;8.98;7.65;;;0.80;99.90;;;;;;4967777;28;20051;-69
2021/01/14 01:24:17;;;;;;;9.07;7.05;;;0.80;99.90;;;;;;4965011;28;20070;-65
2021/01/14 01:26:50;;;;;;;8.00;6.60;;;0.80;99.90;;;;;;4966680;28;20039;-66
2021/01/14 01:29:17;;;;;;;8.85;5.65;;;0.80;99.90;;;;;;4963064;28;20051;-67
2021/01/14 01:31:44;;;;;;;7.65;5.57;;;0.80;99.90;;;;;;4967741;28;20126;-67
2021/01/14 01:34:11;;;;;;;7.47;6.03;;;0.80;99.90;;;;;;4967084;28;20097;-73
2021/01/14 01:36:37;;;;;;;8.70;5.57;;;0.80;99.90;;;;;;4967127;28;20440;-65
2021/01/14 01:39:05;;;;;;;8.70;6.53;;;0.80;99.90;;;;;;4966655;28;20057;-68
2021/01/14 01:41:31;;;;;;;8.02;5.88;;;0.80;99.90;;;;;;4965905;28;21083;-70
2021/01/14 01:43:58;;;;;;;8.13;5.55;;;0.80;99.90;;;;;;4967494;28;20403;-65
2021/01/14 01:46:29;;;;;;;8.32;6.55;;;0.80;99.90;;;;;;4966161;28;20105;-67
2021/01/14 01:48:58;;;;;;;8.80;6.00;;;0.80;99.90;;;;;;4966430;28;20039;-72
2021/01/14 01:51:35;;;;;;;9.38;6.28;;;0.70;99.90;;;;;;4965915;28;20570;-68
2021/01/14 01:54:02;;;;;;;8.52;6.53;;;0.80;99.90;;;;;;4965253;28;20046;-69
2021/01/14 01:56:30;;;;;;;8.57;6.70;;;0.80;99.90;;;;;;4966728;28;20042;-64
2021/01/14 01:58:57;;;;;;;8.20;6.78;;;0.80;99.90;;;;;;4964900;28;20043;-71
2021/01/14 02:01:26;;;;;;;10.15;7.75;;;0.70;99.90;;;;;;4966066;28;20121;-68
2021/01/14 02:03:53;;;;;;;10.40;7.05;;;0.70;99.90;;;;;;4966033;28;20059;-66
2021/01/14 02:06:20;;;;;;;10.05;7.75;;;0.80;99.90;;;;;;4967502;28;20117;-65
2021/01/14 02:08:50;;;;;;;10.07;7.10;;;0.80;99.90;;;;;;4965500;28;20415;-68
2021/01/14 02:11:28;;;;;;;11.35;8.48;;;0.80;99.90;;;;;;4960602;28;20043;-66
2021/01/14 02:14:23;;;;;;;11.27;8.13;;;0.80;99.90;;;;;;4966295;28;20053;-71
2021/01/14 02:16:51;;;;;;;13.95;8.07;;;0.70;99.90;;;;;;4964232;28;20137;-66
2021/01/14 02:19:22;;;;;;;10.23;7.38;;;0.70;99.90;;;;;;4964891;28;20058;-65
2021/01/14 02:21:54;;;;;;;10.35;8.43;;;0.70;99.90;;;;;;4966563;28;20466;-68
2021/01/14 02:24:33;;;;;;;10.43;8.32;;;0.70;99.90;;;;;;4964048;28;20054;-69
2021/01/14 02:27:00;;;;;;;9.30;7.68;;;0.70;99.90;;;;;;4966460;28;20054;-66
2021/01/14 02:29:27;;;;;;;10.35;7.03;;;0.70;99.90;;;;;;4964430;28;20106;-65
2021/01/14 02:31:54;;;;;;;11.98;6.97;;;0.70;99.90;;;;;;4966043;28;20403;-70
2021/01/14 02:34:20;;;;;;;9.43;6.30;;;0.70;99.90;;;;;;4965723;28;20498;-65
2021/01/14 02:36:46;;;;;;;8.90;6.80;;;0.70;99.90;;;;;;4966407;28;20058;-69
2021/01/14 02:39:13;;;;;;;9.45;6.32;;;0.70;99.90;;;;;;4964263;28;20137;-69
2021/01/14 02:41:39;;;;;;;9.05;6.05;;;0.70;99.90;;;;;;4965533;28;20061;-67
2021/01/14 02:44:06;;;;;;;9.27;6.55;;;0.70;99.90;;;;;;4966230;28;20154;-71
2021/01/14 02:46:32;;;;;;;10.45;5.97;;;0.70;99.90;;;;;;4966370;28;20134;-68
2021/01/14 02:49:08;;;;;;;7.40;5.88;;;0.70;99.90;;;;;;4965371;28;20070;-68
2021/01/14 02:51:44;;;;;;;12.63;6.93;;;0.70;99.90;;;;;;4964021;28;20074;-67
2021/01/14 02:54:12;;;;;;;7.88;6.78;;;0.70;99.90;;;;;;4961433;28;20133;-69
2021/01/14 02:56:40;;;;;;;8.40;7.07;;;0.70;99.90;;;;;;4962647;28;20850;-66
2021/01/14 02:59:07;;;;;;;11.23;7.20;;;0.70;99.90;;;;;;4965269;28;20101;-68
2021/01/14 03:01:33;;;;;;;10.57;7.82;;;0.70;99.90;;;;;;4961833;28;20050;-71
2021/01/14 03:04:00;;;;;;;8.77;6.75;;;0.70;99.90;;;;;;4966463;28;20043;-72
2021/01/14 03:06:26;;;;;;;9.77;6.35;;;0.70;99.90;;;;;;4967095;28;20140;-68
2021/01/14 03:08:53;;;;;;;9.82;7.57;;;0.70;99.90;;;;;;4965134;28;20359;-69
2021/01/14 03:11:30;;;;;;;9.88;8.30;;;0.70;99.90;;;;;;4964258;28;20082;-66
2021/01/14 03:13:57;;;;;;;12.60;8.82;;;0.70;99.90;;;;;;4965775;28;20062;-65
2021/01/14 03:16:24;;;;;;;13.80;9.15;;;0.70;99.90;;;;;;4966356;28;20090;-73
2021/01/14 03:18:51;;;;;;;10.93;8.43;;;0.70;99.90;;;;;;4965504;28;20840;-75
2021/01/14 03:21:22;;;;;;;10.45;7.82;;;0.70;99.90;;;;;;4963021;28;20051;-65
2021/01/14 03:23:49;;;;;;;14.90;9.80;;;0.70;99.90;;;;;;4962491;28;20046;-67
2021/01/14 03:26:16;;;;;;;16.80;10.45;;;0.70;99.90;;;;;;4964665;28;20058;-65
2021/01/14 03:28:44;;;;;;;16.92;10.82;;;0.70;99.90;;;;;;4963503;28;20117;-67
2021/01/14 03:31:11;;;;;;;16.30;10.68;;;0.70;99.90;;;;;;4964084;28;20043;-69
2021/01/14 03:33:42;;;;;;;15.60;10.38;;;0.70;99.90;;;;;;4962412;28;20046;-67
2021/01/14 03:36:13;;;;;;;17.95;11.73;;;0.70;99.90;;;;;;4964623;28;20049;-72
2021/01/14 03:38:40;;;;;;;19.60;11.38;;;0.70;99.90;;;;;;4964500;28;20430;-70
2021/01/14 03:41:11;;;;;;;18.98;10.70;;;0.70;99.90;;;;;;4965034;28;20051;-67
2021/01/14 03:43:38;;;;;;;19.17;9.82;;;0.70;99.90;;;;;;4962564;28;20149;-66
2021/01/14 03:46:16;;;;;;;15.10;9.90;;;0.70;99.90;;;;;;4965881;28;20043;-65
2021/01/14 03:48:44;;;;;;;14.93;10.15;;;0.70;99.90;;;;;;4964695;28;20038;-65
2021/01/14 03:51:22;;;;;;;13.38;10.57;;;0.70;99.90;;;;;;4964856;28;20062;-67
2021/01/14 03:53:50;;;;;;;16.02;9.70;;;0.70;99.90;;;;;;4962703;28;20799;-65
2021/01/14 03:56:17;;;;;;;12.95;10.32;;;0.70;99.90;;;;;;4956289;28;20470;-66
2021/01/14 03:58:44;;;;;;;16.98;10.80;;;0.70;99.90;;;;;;4963429;28;20039;-66
2021/01/14 04:01:10;;;;;;;19.98;13.13;;;0.70;99.90;;;;;;4959235;28;20102;-65
2021/01/14 04:03:41;;;;;;;17.48;11.63;;;0.70;99.90;;;;;;4963057;28;20102;-69
2021/01/14 04:06:09;;;;;;;16.83;11.13;;;0.70;99.90;;;;;;4964687;28;20050;-64
2021/01/14 04:08:35;;;;;;;15.05;11.15;;;0.70;99.90;;;;;;4963844;28;20076;-66
2021/01/14 04:11:03;;;;;;;14.32;10.15;;;0.70;99.90;;;;;;4964207;28;20117;-67
2021/01/14 04:13:30;;;;;;;17.83;12.15;;;0.70;99.90;;;;;;4963180;28;20487;-67
2021/01/14 04:15:56;;;;;;;13.27;10.48;;;0.70;99.90;;;;;;4964545;28;20074;-69
2021/01/14 04:18:23;;;;;;;13.27;8.98;;;0.70;99.90;;;;;;4965048;28;20134;-65
2021/01/14 04:20:49;;;;;;;16.17;11.23;;;0.70;99.90;;;;;;4964119;28;20109;-66
2021/01/14 04:23:16;;;;;;;16.52;9.48;;;0.70;99.90;;;;;;4961971;28;20106;-69
2021/01/14 04:25:43;;;;;;;12.40;8.15;;;0.70;99.90;;;;;;4964145;28;20043;-65
2021/01/14 04:28:09;;;;;;;12.50;9.73;;;0.70;99.90;;;;;;4963230;28;20101;-65
2021/01/14 04:30:36;;;;;;;12.20;8.85;;;0.70;99.90;;;;;;4963452;28;20471;-69
2021/01/14 04:33:12;;;;;;;12.85;8.90;;;0.70;99.90;;;;;;4963173;28;20109;-65
2021/01/14 04:35:48;;;;;;;18.92;10.38;;;0.70;99.90;;;;;;4963388;28;20051;-69
2021/01/14 04:38:15;;;;;;;12.05;8.77;;;0.70;99.90;;;;;;4962565;28;20088;-69
2021/01/14 04:40:43;;;;;;;12.35;8.82;;;0.70;99.90;;;;;;4964005;28;20047;-69
2021/01/14 04:43:11;;;;;;;18.33;10.00;;;0.60;99.90;;;;;;4963591;28;20051;-65
2021/01/14 04:45:42;;;;;;;12.00;8.88;;;0.60;99.90;;;;;;4962685;28;20506;-65
2021/01/14 04:48:12;;;;;;;13.02;9.07;;;0.60;99.90;;;;;;4959722;28;20042;-65
2021/01/14 04:51:05;;;;;;;14.68;9.40;;;0.60;99.90;;;;;;4961434;28;20544;-65
2021/01/14 04:53:44;;;;;;;10.70;7.57;;;0.60;99.90;;;;;;4961725;28;21664;-68
2021/01/14 04:56:13;;;;;;;10.82;7.50;;;0.60;99.90;;;;;;4962843;28;20370;-66
2021/01/14 04:58:41;;;;;;;10.52;7.13;;;0.60;99.90;;;;;;4963752;28;20098;-66
2021/01/14 05:01:24;;;;;;;13.38;7.93;;;0.60;99.90;;;;;;4960618;28;20061;-65
2021/01/14 05:03:55;;;;;;;14.43;9.30;;;0.60;99.90;;;;;;4962730;28;20152;-66
2021/01/14 05:06:22;;;;;;;;;;;0.60;99.90;;;;;;4964838;28;20275;-69
2021/01/14 05:08:51;;;;;;;13.07;9.18;;;0.60;99.90;;;;;;4963224;28;19929;-65
2021/01/14 05:11:18;;;;;;;13.60;9.25;;;0.60;99.90;;;;;;4961698;28;20133;-66
2021/01/14 05:13:47;;;;;;;12.13;8.13;;;0.60;99.90;;;;;;4964712;28;20038;-69
2021/01/14 05:16:14;;;;;;;11.20;9.27;;;0.60;99.90;;;;;;4963608;28;20047;-65
2021/01/14 05:18:41;;;;;;;12.35;8.68;;;0.60;99.90;;;;;;4964438;28;20483;-67
2021/01/14 05:21:07;;;;;;;11.93;8.02;;;0.60;99.90;;;;;;4964435;28;20051;-65
2021/01/14 05:23:34;;;;;;;10.60;7.40;;;0.60;99.90;;;;;;4962428;28;20138;-70
2021/01/14 05:26:01;;;;;;;11.73;8.15;;;0.50;99.90;;;;;;4964935;28;20039;-65
2021/01/14 05:28:29;;;;;;;11.68;6.82;;;0.60;99.90;;;;;;4962857;28;20058;-70
2021/01/14 05:31:16;;;;;;;10.65;6.68;;;0.60;99.90;;;;;;4964689;28;20345;-68
2021/01/14 05:33:56;;;;;;;11.10;7.47;;;0.60;99.90;;;;;;4961159;28;20448;-65
2021/01/14 05:36:23;;;;;;;12.23;8.23;;;0.60;99.90;;;;;;4963288;28;20066;-65
2021/01/14 05:38:51;;;;;;;8.88;7.07;;;0.60;99.90;;;;;;4963312;28;20054;-68
2021/01/14 05:41:27;;;;;;;10.55;7.65;;;0.50;99.90;;;;;;4961467;28;20050;-66
2021/01/14 05:43:58;;;;;;;12.27;8.60;;;0.50;99.90;;;;;;4960710;28;20054;-71
2021/01/14 05:46:27;;;;;;;10.85;7.25;;;0.50;99.90;;;;;;4960498;28;20082;-65
2021/01/14 05:48:55;;;;;;;10.63;8.00;;;0.50;99.90;;;;;;4962657;28;20074;-67
2021/01/14 05:51:26;;;;;;;13.35;8.07;;;0.50;99.90;;;;;;4960845;28;20051;-67
2021/01/14 05:53:59;;;;;;;11.13;7.35;;;0.50;99.90;;;;;;4961933;28;20617;-69
2021/01/14 05:56:47;;;;;;;10.73;7.13;;;0.50;99.90;;;;;;4963471;28;20065;-66
2021/01/14 05:59:15;;;;;;;12.40;7.13;;;0.50;99.90;;;;;;4957052;28;20054;-65
2021/01/14 06:01:58;;;;;;;10.75;7.30;;;0.50;99.90;;;;;;4963018;28;20133;-69
2021/01/14 06:04:27;;;;;;;10.82;7.93;;;0.50;99.90;;;;;;4961549;28;20557;-68
2021/01/14 06:06:55;;;;;;;11.23;8.02;;;0.50;99.90;;;;;;4964504;28;20050;-68
2021/01/14 06:09:23;;;;;;;12.07;7.30;;;0.50;99.90;;;;;;4964802;28;20732;-66
2021/01/14 06:11:51;;;;;;;9.52;7.30;;;0.40;99.90;;;;;;4965805;28;20090;-68
2021/01/14 06:14:33;;;;;;;13.95;8.15;;;0.40;99.90;;;;;;4966561;28;20130;-65
2021/01/14 06:17:04;;;;;;;11.68;7.47;;;0.40;99.90;;;;;;4965064;28;20043;-73
2021/01/14 06:19:32;;;;;;;13.32;7.45;;;0.40;99.90;;;;;;4961869;28;20054;-69
2021/01/14 06:21:59;;;;;;;9.65;6.85;;;0.40;99.90;;;;;;4966526;28;20055;-70
2021/01/14 06:24:30;;;;;;;10.35;7.30;;;0.40;99.90;;;;;;4964773;28;20514;-68
2021/01/14 06:27:07;;;;;;;10.40;7.18;;;0.40;99.90;;;;;;4966330;28;20047;-66
2021/01/14 06:29:42;;;;;;;13.00;8.13;;;0.40;99.90;;;;;;4965216;28;20055;-72
2021/01/14 06:32:28;;;;;;;9.88;7.38;;;0.40;99.90;;;;;;4963640;28;20061;-68
2021/01/14 06:34:54;;;;;;;7.82;6.18;;;0.40;99.90;;;;;;4965481;28;20042;-69
2021/01/14 06:37:23;;;;;;;8.63;6.82;;;0.40;99.90;;;;;;4963831;28;20073;-65
2021/01/14 06:39:55;;;;;;;9.02;6.53;;;0.40;99.90;;;;;;4963282;28;20043;-66
2021/01/14 06:42:33;;;;;;;10.80;7.30;;;0.40;99.90;;;;;;4965248;28;20086;-69
2021/01/14 06:45:05;;;;;;;12.32;8.60;;;0.40;99.90;;;;;;4965386;28;20051;-70
2021/01/14 06:47:42;;;;;;;9.77;7.10;;;0.40;99.90;;;;;;4964612;28;20081;-71
2021/01/14 06:50:18;;;;;;;10.10;7.05;;;0.50;99.90;;;;;;4964212;28;20050;-69
2021/01/14 06:52:57;;;;;;;9.95;7.05;;;0.40;99.90;;;;;;4964938;28;20424;-72
2021/01/14 06:55:25;;;;;;;9.82;6.18;;;0.50;99.90;;;;;;4963757;28;20154;-65
2021/01/14 06:57:57;;;;;;;8.65;6.35;;;0.50;99.90;;;;;;4965882;28;20102;-71
2021/01/14 07:00:28;;;;;;;9.40;7.25;;;0.50;99.90;;;;;;4965180;28;20042;-70
2021/01/14 07:03:07;;;;;;;;;;;0.50;99.90;;;;;;4961553;28;20146;-69
2021/01/14 07:05:40;;;;;;;9.32;7.10;;;0.50;99.90;;;;;;4963956;28;20631;-67
2021/01/14 07:08:33;;;;;;;13.00;7.45;;;0.50;99.90;;;;;;4957496;28;20062;-68
2021/01/14 07:11:06;;;;;;;11.40;8.45;;;0.50;99.90;;;;;;4964881;28;20442;-67
2021/01/14 07:13:34;;;;;;;10.07;7.35;;;0.50;99.90;;;;;;4963839;28;20054;-70
2021/01/14 07:16:01;;;;;;;9.70;6.90;;;0.50;99.90;;;;;;4965043;28;20041;-64
2021/01/14 07:18:32;;;;;;;9.80;7.68;;;0.50;99.90;;;;;;4965358;28;20125;-65
2021/01/14 07:21:10;;;;;;;9.32;6.95;;;0.50;99.90;;;;;;4964935;28;20105;-65
2021/01/14 07:23:55;;;;;;;9.65;6.25;;;0.50;99.90;;;;;;4957796;28;20039;-68
2021/01/14 07:26:23;;;;;;;10.00;6.55;;;0.50;99.90;;;;;;4965219;28;20051;-68
2021/01/14 07:28:51;;;;;;;9.48;7.55;;;0.50;99.90;;;;;;4964138;28;20153;-67
2021/01/14 07:31:25;;;;;;;9.68;8.00;;;0.50;99.90;;;;;;4963858;28;20113;-66
2021/01/14 07:33:53;;;;;;;9.95;7.57;;;0.50;99.90;;;;;;4956311;28;20177;-68
2021/01/14 07:36:22;;;;;;;12.05;6.63;;;0.50;99.90;;;;;;4963088;28;20058;-66
2021/01/14 07:38:51;;;;;;;9.20;6.88;;;0.50;99.90;;;;;;4964851;28;20379;-67
2021/01/14 07:41:17;;;;;;;10.63;6.82;;;0.50;99.90;;;;;;4963052;28;20693;-67
2021/01/14 07:43:47;;;;;;;8.68;6.18;;;0.50;99.90;;;;;;4964958;28;20039;-69
2021/01/14 07:46:18;;;;;;;10.98;5.72;;;0.60;99.90;;;;;;4965014;28;20407;-69
2021/01/14 07:48:45;;;;;;;9.23;5.85;;;0.60;99.90;;;;;;4961753;28;20063;-69
2021/01/14 07:51:12;;;;;;;10.95;7.50;;;0.60;99.90;;;;;;4965206;28;20149;-71
2021/01/14 07:53:38;;;;;;;10.38;7.30;;;0.50;99.90;;;;;;4962109;28;20062;-67
2021/01/14 07:56:25;;;;;;;10.90;7.55;;;0.50;99.90;;;;;;4956115;28;20600;-67
2021/01/14 07:58:54;;;;;;;10.70;7.57;;;0.50;99.90;;;;;;4963904;28;20047;-69
2021/01/14 08:01:21;;;;;;;10.35;7.40;;;0.60;99.90;;;;;;4963115;28;20082;-64
2021/01/14 08:03:48;;;;;;;12.48;7.53;;;0.60;99.90;;;;;;4963741;28;20439;-65
2021/01/14 08:06:35;;;;;;;10.95;8.02;;;0.60;99.90;;;;;;4964317;28;20043;-65
2021/01/14 08:09:09;;;;;;;11.32;7.93;;;0.60;99.90;;;;;;4962988;28;20070;-71
2021/01/14 08:11:42;;;;;;;10.77;8.05;;;0.60;99.90;;;;;;4962702;28;20138;-68
2021/01/14 08:14:34;;;;;;;13.90;8.77;;;0.60;99.90;;;;;;4963874;28;20185;-67
2021/01/14 08:17:01;;;;;;;12.13;8.73;;;0.60;99.90;;;;;;4963754;28;20110;-69
2021/01/14 08:19:37;;;;;;;14.18;8.07;;;0.60;99.90;;;;;;4963277;28;20070;-70
2021/01/14 08:22:13;;;;;;;11.57;7.85;;;0.60;99.90;;;;;;4963712;28;20073;-70
2021/01/14 08:24:47;;;;;;;9.77;7.22;;;0.60;99.90;;;;;;4964098;28;20551;-67
2021/01/14 08:27:36;;;;;;;10.73;7.50;;;0.60;99.90;;;;;;4957488;28;20058;-71
2021/01/14 08:30:12;;;;;;;8.63;6.85;;;0.60;99.90;;;;;;4962480;28;20392;-69
2021/01/14 08:32:49;;;;;;;11.63;8.02;;;0.60;99.90;;;;;;4961291;28;20782;-69
2021/01/14 08:35:31;;;;;;;11.15;7.35;;;0.60;99.90;;;;;;4953935;28;20062;-65
2021/01/14 08:38:02;;;;;;;8.75;5.78;;;0.70;99.90;;;;;;4964551;28;20448;-64
2021/01/14 08:40:39;;;;;;;10.25;6.25;;;0.70;99.90;;;;;;4964241;28;20499;-64
2021/01/14 08:43:07;;;;;;;11.30;7.28;;;0.60;99.90;;;;;;4963464;28;20531;-69
2021/01/14 08:45:51;;;;;;;9.90;7.32;;;0.60;99.90;;;;;;4963019;28;20061;-66
2021/01/14 08:48:23;;;;;;;11.20;5.35;;;0.60;99.90;;;;;;4962248;28;20062;-65
2021/01/14 08:50:56;;;;;;;5.55;3.90;;;0.60;99.90;;;;;;4963962;28;20061;-66
2021/01/14 08:53:26;;;;;;;6.10;4.00;;;0.50;99.90;;;;;;4958367;28;20152;-71
2021/01/14 08:55:56;;;;;;;;;;;0.50;99.90;;;;;;4964607;28;20051;-65
2021/01/14 08:58:35;;;;;;;12.90;7.75;;;0.50;99.90;;;;;;4963106;28;20362;-66
2021/01/14 09:01:02;;;;;;;10.98;7.82;;;0.40;99.90;;;;;;4963213;28;20073;-71
2021/01/14 09:03:29;;;;;;;10.60;7.63;;;0.40;99.90;;;;;;4961897;28;20043;-66
2021/01/14 09:05:55;;;;;;;13.35;8.73;;;0.40;99.90;;;;;;4963359;28;20110;-64
2021/01/14 09:08:22;;;;;;;15.57;9.27;;;0.30;99.90;;;;;;4962676;28;20526;-66
2021/01/14 09:10:56;;;;;;;14.32;9.65;;;0.40;99.90;;;;;;4963135;28;20062;-69
2021/01/14 09:13:33;;;;;;;13.60;9.88;;;0.40;99.90;;;;;;4961877;28;20058;-72
2021/01/14 09:16:08;;;;;;;15.40;9.63;;;0.40;99.90;;;;;;4963674;28;20047;-65
2021/01/14 09:18:38;;;;;;;15.40;9.88;;;0.40;99.90;;;;;;4961681;28;20058;-67
2021/01/14 09:21:05;;;;;;;13.02;8.13;;;0.40;99.90;;;;;;4963108;28;20062;-69
2021/01/14 09:23:34;;;;;;;15.35;10.38;;;0.50;99.90;;;;;;4961646;28;20466;-69
2021/01/14 09:26:04;;;;;;;12.90;8.88;;;0.50;99.90;;;;;;4964631;28;20162;-66
2021/01/14 09:28:32;;;;;;;13.50;9.20;;;0.50;99.90;;;;;;4962772;28;20051;-67
2021/01/14 09:31:10;;;;;;;12.10;8.93;;;0.50;99.90;;;;;;4961733;28;20295;-69
2021/01/14 09:33:42;;;;;;;13.25;7.07;;;0.50;99.90;;;;;;4954149;28;20085;-69
2021/01/14 09:36:24;;;;;;;8.23;5.78;;;0.60;99.90;;;;;;4961596;28;20109;-66
2021/01/14 09:38:52;;;;;;;10.55;6.53;;;0.60;99.90;;;;;;4961018;28;20066;-68
2021/01/14 09:41:31;;;;;;;9.75;6.30;;;0.60;99.90;;;;;;4961311;28;20441;-70
2021/01/14 09:44:05;;;;;;;11.30;6.50;;;0.60;99.90;;;;;;4966311;28;20043;-65
2021/01/14 09:46:35;;;;;;;8.90;5.68;;;0.60;99.90;;;;;;4966833;28;20713;-68
2021/01/14 09:49:05;;;;;;;7.07;5.65;;;0.60;99.90;;;;;;4967497;28;20053;-70
2021/01/14 09:51:33;;;;;;;10.30;5.13;;;0.70;99.90;;;;;;4965101;28;20173;-70
2021/01/14 09:54:02;;;;;;;8.30;5.25;;;0.70;99.90;;;;;;4966102;28;20458;-70
2021/01/14 09:56:30;;;;;;;6.75;4.18;;;0.70;99.90;;;;;;4967149;28;20074;-72
2021/01/14 09:59:32;;;;;;;9.70;5.45;;;0.70;99.90;;;;;;4966294;28;20051;-69
2021/01/14 10:02:24;;;;;;;7.95;4.78;;;0.60;99.90;;;;;;4951520;28;20688;-70
2021/01/14 10:05:14;;;;;;;5.20;4.23;;;0.60;99.90;;;;;;4962196;28;20069;-69
2021/01/14 10:07:54;;;;;;;5.82;3.92;;;0.70;99.90;;;;;;4964932;28;20371;-69
2021/01/14 10:10:21;;;;;;;6.30;4.60;;;0.70;99.90;;;;;;4965873;28;20487;-70
2021/01/14 10:13:00;;;;;;;6.93;3.92;;;0.70;99.90;;;;;;4966920;28;20471;-66
2021/01/14 10:15:27;;;;;;;10.63;6.30;;;0.70;99.90;;;;;;4963721;28;20129;-67
2021/01/14 10:17:53;;;;;;;7.00;3.75;;;0.70;99.90;;;;;;4965944;28;20125;-70
2021/01/14 10:20:19;;;;;;;8.30;4.20;;;0.70;99.90;;;;;;4966783;28;20059;-69
2021/01/14 10:22:51;;;;;;;7.35;4.53;;;0.70;99.90;;;;;;4965737;28;20173;-65
2021/01/14 10:25:19;;;;;;;4.60;3.85;;;0.70;99.90;;;;;;4958326;28;20121;-67
2021/01/14 10:28:03;;;;;;;4.75;3.47;;;0.70;99.90;;;;;;4966246;28;20113;-65
2021/01/14 10:30:30;;;;;;;8.40;4.30;;;0.70;99.90;;;;;;4966512;28;20058;-70
2021/01/14 10:33:02;;;;;;;5.70;3.65;;;0.80;99.90;;;;;;4964215;28;20487;-68
2021/01/14 10:35:30;;;;;;;7.47;4.60;;;0.80;99.90;;;;;;4952087;28;20395;-66
2021/01/14 10:38:14;;;;;;;7.75;4.25;;;0.80;99.90;;;;;;4964145;28;20035;-74
2021/01/14 10:40:49;;;;;;;8.38;4.47;;;0.80;99.90;;;;;;4966262;28;20050;-68
2021/01/14 10:43:36;;;;;;;8.85;4.30;;;0.80;99.90;;;;;;4964074;28;20410;-67
2021/01/14 10:46:04;;;;;;;9.27;4.32;;;0.80;99.90;;;;;;4966556;28;20475;-73
2021/01/14 10:48:38;;;;;;;7.18;3.58;;;0.80;99.90;;;;;;4966307;28;20039;-65
2021/01/14 10:51:06;;;;;;;8.57;4.43;;;0.80;99.90;;;;;;4966065;28;20043;-68
2021/01/14 10:53:36;;;;;;;5.28;3.90;;;0.80;99.90;;;;;;4962509;28;20140;-71
2021/01/14 10:56:08;;;;;;;6.30;4.32;;;0.80;99.90;;;;;;4965918;28;20042;-66
2021/01/14 10:58:37;;;;;;;6.85;3.78;;;0.80;99.90;;;;;;4965548;28;20344;-73
2021/01/14 11:01:17;;;;;;;4.28;3.10;;;0.80;99.90;;;;;;4965482;28;20154;-68
2021/01/14 11:03:44;;;;;;;7.25;3.67;;;0.80;99.90;;;;;;4962046;28;20054;-67
2021/01/14 11:06:10;;;;;;;5.55;3.17;;;0.80;99.90;;;;;;4965718;28;20522;-70
2021/01/14 11:08:44;;;;;;;5.72;4.20;;;0.80;99.90;;;;;;4964516;28;20051;-71
2021/01/14 11:11:15;;;;;;;4.82;3.95;;;0.80;99.90;;;;;;4964794;28;20129;-69
2021/01/14 11:13:49;;;;;;;6.55;4.10;;;0.80;99.90;;;;;;4963049;28;20053;-65
2021/01/14 11:16:18;;;;;;;5.25;3.80;;;0.80;99.90;;;;;;4958101;28;20053;-65
2021/01/14 11:18:50;;;;;;;6.20;4.78;;;0.80;99.90;;;;;;4963431;28;20056;-71
2021/01/14 11:21:19;;;;;;;6.93;5.25;;;0.90;99.90;;;;;;4963568;28;20825;-69
2021/01/14 11:23:45;;;;;;;8.38;5.13;;;0.80;99.90;;;;;;4964581;28;20041;-67
2021/01/14 11:26:19;;;;;;;5.30;3.55;;;0.90;99.90;;;;;;4965057;28;20563;-70
2021/01/14 11:28:46;;;;;;;5.05;3.65;;;0.80;99.90;;;;;;4965626;28;20058;-68
2021/01/14 11:31:17;;;;;;;6.68;3.80;;;0.70;99.90;;;;;;4963237;28;20074;-70
2021/01/14 11:33:45;;;;;;;5.82;4.13;;;0.70;99.90;;;;;;4956838;28;20061;-67
2021/01/14 11:36:13;;;;;;;5.53;3.78;;;0.70;99.90;;;;;;4955447;28;20558;-67
2021/01/14 11:38:41;;;;;;;5.75;4.45;;;0.70;99.90;;;;;;4964517;28;20055;-73
2021/01/14 11:41:08;;;;;;;8.25;3.78;;;0.70;99.90;;;;;;4965526;28;20050;-65
2021/01/14 11:43:35;;;;;;;7.20;3.60;;;0.60;99.90;;;;;;4961496;28;20066;-70
2021/01/14 11:46:02;;;;;;;7.07;3.40;;;0.60;99.90;;;;;;4965172;28;20061;-71
2021/01/14 11:48:28;;;;;;;8.25;3.88;;;0.70;99.90;;;;;;4962644;28;20047;-66
2021/01/14 11:50:55;;;;;;;6.82;4.03;;;0.70;99.90;;;;;;4965019;28;20105;-69
2021/01/14 11:53:21;;;;;;;5.15;3.75;;;0.70;99.90;;;;;;4962693;28;20109;-68
2021/01/14 11:55:48;;;;;;;5.80;2.97;;;0.70;99.90;;;;;;4962818;28;20585;-65
2021/01/14 11:58:14;;;;;;;5.22;2.97;;;0.70;99.90;;;;;;4964822;28;20770;-68
2021/01/14 12:00:42;;;;;;;4.68;3.10;;;0.70;99.90;;;;;;4964379;28;20043;-72
2021/01/14 12:03:09;;;;;;;5.70;3.05;;;0.70;99.90;;;;;;4964294;28;20169;-66
2021/01/14 12:05:35;;;;;;;8.82;3.72;;;0.70;99.90;;;;;;4962766;28;20053;-65
2021/01/14 12:08:03;;;;;;;5.10;3.35;;;0.70;99.90;;;;;;4963740;28;20113;-71
2021/01/14 12:10:29;;;;;;;3.92;3.22;;;0.70;99.90;;;;;;4963566;28;20703;-67
2021/01/14 12:12:56;;;;;;;5.30;2.95;;;0.70;99.90;;;;;;4964591;28;20051;-65
2021/01/14 12:15:22;;;;;;;4.70;3.15;;;0.70;99.90;;;;;;4962974;28;20054;-68
2021/01/14 12:17:49;;;;;;;3.67;2.95;;;0.70;99.90;;;;;;4960928;28;20110;-68
2021/01/14 12:20:16;;;;;;;4.20;3.38;;;0.70;99.90;;;;;;4964207;28;20391;-66
2021/01/14 12:22:43;;;;;;;4.20;3.15;;;0.70;99.90;;;;;;4963417;28;20051;-69
2021/01/14 12:25:11;;;;;;;7.05;4.90;;;0.70;99.90;;;;;;4964128;28;20061;-65
2021/01/14 12:27:39;;;;;;;4.50;3.15;;;0.80;99.90;;;;;;4962906;28;20070;-65
2021/01/14 12:30:08;;;;;;;5.38;3.28;;;0.80;99.90;;;;;;4966677;28;20056;-67
2021/01/14 12:32:35;;;;;;;5.10;3.40;;;0.80;99.90;;;;;;4963714;28;20774;-70
2021/01/14 12:35:03;;;;;;;4.75;3.17;;;0.80;99.90;;;;;;4959270;28;20046;-72
2021/01/14 12:37:38;;;;;;;5.90;3.88;;;0.70;99.90;;;;;;4958320;28;20078;-69
2021/01/14 12:40:09;;;;;;;8.07;3.60;;;0.60;99.90;;;;;;4959453;28;20459;-69
2021/01/14 12:42:36;;;;;;;5.38;3.45;;;0.60;99.90;;;;;;4960720;28;20050;-68
2021/01/14 12:45:04;;;;;;;5.38;3.90;;;0.50;99.90;;;;;;4962207;28;20136;-67
2021/01/14 12:47:30;;;;;;;5.00;3.65;;;0.50;99.90;;;;;;4958346;28;20109;-66
2021/01/14 12:49:56;;;;;;;3.22;2.92;;;0.50;99.90;;;;;;4963537;28;20046;-66
2021/01/14 12:52:41;;;;;;;8.48;3.97;;;0.50;99.90;;;;;;4958967;28;20096;-67
2021/01/14 12:55:08;;;;;;;5.88;4.32;;;0.50;99.90;;;;;;4963773;28;20058;-65
2021/01/14 12:57:35;;;;;;;5.90;3.50;;;0.50;99.90;;;;;;4962141;28;20506;-69
2021/01/14 13:00:01;;;;;;;5.22;3.05;;;0.50;99.90;;;;;;4963762;28;20047;-65
2021/01/14 13:02:27;;;;;;;7.07;3.83;;;0.50;99.90;;;;;;4963269;28;20065;-68
2021/01/14 13:04:54;;;;;;;8.32;3.88;;;0.50;99.90;;;;;;4963873;28;20050;-69
2021/01/14 13:07:20;;;;;;;6.35;3.90;;;0.50;99.90;;;;;;4961185;28;20534;-70
2021/01/14 13:09:47;;;;;;;6.57;3.35;;;0.50;99.90;;;;;;4959937;28;20057;-66